sensor_id;sensor_type;location;lat;lon;timestamp;pressure;altitude;pressure_sealevel;temperature;humidity
60719;BME280;46567;51.660;5.824;2022-09-09T00:07:52;100720.0;;;15.8;83.0
60719;BME280;46567;51.660;5.824;2022-09-09T00:18:00;100710.0;;;15.6;83.5
60719;BME280;46567;51.660;5.824;2022-09-09T00:27:50;100700.0;;;15.6;83.5
60719;BME280;46567;51.660;5.824;2022-09-09T00:37:51;100700.0;;;15.5;84.0
60719;BME280;46567;51.660;5.824;2022-09-09T00:47:52;100700.0;;;15.4;84.0
60719;BME280;46567;51.660;5.824;2022-09-09T00:58:14;100700.0;;;15.3;84.0
60719;BME280;46567;51.660;5.824;2022-09-09T01:18:21;100670.0;;;15.2;84.5
60719;BME280;46567;51.660;5.824;2022-09-09T01:27:50;100680.0;;;15.2;85.0
60719;BME280;46567;51.660;5.824;2022-09-09T01:37:49;100680.0;;;15.2;85.0
60719;BME280;46567;51.660;5.824;2022-09-09T01:47:52;100680.0;;;15.3;85.0
60719;BME280;46567;51.660;5.824;2022-09-09T01:58:45;100670.0;;;15.3;85.0
60719;BME280;46567;51.660;5.824;2022-09-09T02:08:17;100660.0;;;15.3;85.5
60719;BME280;46567;51.660;5.824;2022-09-09T02:18:19;100650.0;;;15.3;85.5
60719;BME280;46567;51.660;5.824;2022-09-09T02:37:52;100650.0;;;15.3;86.5
60719;BME280;46567;51.660;5.824;2022-09-09T02:47:59;100640.0;;;15.2;87.0
60719;BME280;46567;51.660;5.824;2022-09-09T02:57:50;100660.0;;;15.2;86.5
60719;BME280;46567;51.660;5.824;2022-09-09T03:07:49;100650.0;;;15.2;87.0
60719;BME280;46567;51.660;5.824;2022-09-09T03:17:49;100660.0;;;15.2;87.0
60719;BME280;46567;51.660;5.824;2022-09-09T03:27:50;100660.0;;;15.2;87.0
60719;BME280;46567;51.660;5.824;2022-09-09T03:37:49;100660.0;;;15.3;87.0
60719;BME280;46567;51.660;5.824;2022-09-09T03:47:49;100670.0;;;15.4;87.5
60719;BME280;46567;51.660;5.824;2022-09-09T03:57:49;100660.0;;;15.5;87.5
60719;BME280;46567;51.660;5.824;2022-09-09T04:07:49;100650.0;;;15.6;87.5
60719;BME280;46567;51.660;5.824;2022-09-09T04:18:14;100660.0;;;15.6;87.5
60719;BME280;46567;51.660;5.824;2022-09-09T04:27:52;100630.0;;;15.8;88.0
60719;BME280;46567;51.660;5.824;2022-09-09T04:37:49;100630.0;;;15.8;87.5
60719;BME280;46567;51.660;5.824;2022-09-09T04:47:49;100630.0;;;15.9;88.0
60719;BME280;46567;51.660;5.824;2022-09-09T04:57:49;100620.0;;;16.0;88.0
60719;BME280;46567;51.660;5.824;2022-09-09T05:07:49;100610.0;;;16.1;88.0
60719;BME280;46567;51.660;5.824;2022-09-09T05:17:49;100610.0;;;16.1;88.0
60719;BME280;46567;51.660;5.824;2022-09-09T05:28:14;100620.0;;;16.2;88.0
60719;BME280;46567;51.660;5.824;2022-09-09T05:38:14;100610.0;;;16.2;88.0
60719;BME280;46567;51.660;5.824;2022-09-09T05:47:51;100620.0;;;16.3;88.0
60719;BME280;46567;51.660;5.824;2022-09-09T05:57:49;100620.0;;;16.4;88.0
60719;BME280;46567;51.660;5.824;2022-09-09T06:17:54;100630.0;;;16.5;88.0
60719;BME280;46567;51.660;5.824;2022-09-09T06:27:49;100640.0;;;16.6;88.5
60719;BME280;46567;51.660;5.824;2022-09-09T06:37:49;100620.0;;;17.0;88.0
60719;BME280;46567;51.660;5.824;2022-09-09T06:47:49;100630.0;;;17.4;88.0
60719;BME280;46567;51.660;5.824;2022-09-09T06:57:49;100630.0;;;17.9;87.5
60719;BME280;46567;51.660;5.824;2022-09-09T07:17:49;100630.0;;;18.1;85.0
60719;BME280;46567;51.660;5.824;2022-09-09T07:27:49;100620.0;;;18.4;85.5
60719;BME280;46567;51.660;5.824;2022-09-09T07:37:49;100630.0;;;18.7;83.5
60719;BME280;46567;51.660;5.824;2022-09-09T07:57:49;100630.0;;;18.6;83.5
60719;BME280;46567;51.660;5.824;2022-09-09T08:37:52;100650.0;;;19.3;80.0
60719;BME280;46567;51.660;5.824;2022-09-09T08:48:03;100660.0;;;19.3;79.5
60719;BME280;46567;51.660;5.824;2022-09-09T08:58:23;100660.0;;;19.7;78.0
60719;BME280;46567;51.660;5.824;2022-09-09T09:08:08;100660.0;;;19.7;77.5
60719;BME280;46567;51.660;5.824;2022-09-09T09:17:50;100660.0;;;19.7;77.0
60719;BME280;46567;51.660;5.824;2022-09-09T09:28:02;100660.0;;;20.0;76.5
60719;BME280;46567;51.660;5.824;2022-09-09T09:37:49;100670.0;;;20.0;74.5
60719;BME280;46567;51.660;5.824;2022-09-09T09:47:57;100660.0;;;19.7;75.0
60719;BME280;46567;51.660;5.824;2022-09-09T09:57:50;100660.0;;;19.8;75.0
60719;BME280;46567;51.660;5.824;2022-09-09T10:08:03;100670.0;;;19.8;75.0
60719;BME280;46567;51.660;5.824;2022-09-09T10:18:13;100670.0;;;19.7;75.0
60719;BME280;46567;51.660;5.824;2022-09-09T10:28:33;100670.0;;;19.8;74.5
60719;BME280;46567;51.660;5.824;2022-09-09T10:37:56;100670.0;;;20.0;73.5
60719;BME280;46567;51.660;5.824;2022-09-09T10:48:25;100670.0;;;19.8;74.5
60719;BME280;46567;51.660;5.824;2022-09-09T11:08:17;100690.0;;;19.5;75.5
60719;BME280;46567;51.660;5.824;2022-09-09T11:17:52;100700.0;;;19.0;77.5
60719;BME280;46567;51.660;5.824;2022-09-09T11:28:11;100690.0;;;18.7;78.5
60719;BME280;46567;51.660;5.824;2022-09-09T11:39:26;100690.0;;;18.7;80.5
60719;BME280;46567;51.660;5.824;2022-09-09T11:47:54;100690.0;;;18.7;82.0
60719;BME280;46567;51.660;5.824;2022-09-09T11:58:18;100690.0;;;19.1;83.0
60719;BME280;46567;51.660;5.824;2022-09-09T12:07:52;100670.0;;;19.8;82.0
60719;BME280;46567;51.660;5.824;2022-09-09T12:18:25;100670.0;;;19.9;80.5
60719;BME280;46567;51.660;5.824;2022-09-09T12:28:18;100670.0;;;19.8;80.0
60719;BME280;46567;51.660;5.824;2022-09-09T12:37:53;100670.0;;;19.6;80.0
60719;BME280;46567;51.660;5.824;2022-09-09T12:48:18;100660.0;;;19.9;81.0
60719;BME280;46567;51.660;5.824;2022-09-09T12:58:16;100650.0;;;20.3;80.0
60719;BME280;46567;51.660;5.824;2022-09-09T13:07:50;100650.0;;;20.3;78.5
60719;BME280;46567;51.660;5.824;2022-09-09T13:18:14;100640.0;;;20.3;78.5
60719;BME280;46567;51.660;5.824;2022-09-09T13:28:25;100630.0;;;20.2;78.5
60719;BME280;46567;51.660;5.824;2022-09-09T13:37:50;100620.0;;;20.1;79.0
60719;BME280;46567;51.660;5.824;2022-09-09T13:47:50;100630.0;;;19.9;79.5
60719;BME280;46567;51.660;5.824;2022-09-09T13:57:54;100620.0;;;19.6;80.0
60719;BME280;46567;51.660;5.824;2022-09-09T14:47:50;100610.0;;;20.3;79.5
60719;BME280;46567;51.660;5.824;2022-09-09T14:58:14;100610.0;;;20.7;80.0
60719;BME280;46567;51.660;5.824;2022-09-09T15:07:50;100620.0;;;21.4;77.5
60719;BME280;46567;51.660;5.824;2022-09-09T15:17:50;100600.0;;;21.3;75.0
60719;BME280;46567;51.660;5.824;2022-09-09T15:27:50;100600.0;;;21.0;75.5
60719;BME280;46567;51.660;5.824;2022-09-09T15:37:50;100600.0;;;20.7;75.5
60719;BME280;46567;51.660;5.824;2022-09-09T15:58:14;100640.0;;;20.5;76.0
60719;BME280;46567;51.660;5.824;2022-09-09T16:18:14;100660.0;;;18.3;78.0
60719;BME280;46567;51.660;5.824;2022-09-09T16:27:50;100660.0;;;17.9;79.5
60719;BME280;46567;51.660;5.824;2022-09-09T16:37:50;100660.0;;;17.9;80.5
60719;BME280;46567;51.660;5.824;2022-09-09T16:47:50;100670.0;;;17.9;81.0
60719;BME280;46567;51.660;5.824;2022-09-09T16:58:39;100690.0;;;17.8;81.5
60719;BME280;46567;51.660;5.824;2022-09-09T17:07:50;100700.0;;;17.7;82.0
60719;BME280;46567;51.660;5.824;2022-09-09T17:17:50;100690.0;;;17.6;82.5
60719;BME280;46567;51.660;5.824;2022-09-09T17:27:50;100690.0;;;17.6;83.0
60719;BME280;46567;51.660;5.824;2022-09-09T17:37:50;100690.0;;;17.7;83.0
60719;BME280;46567;51.660;5.824;2022-09-09T17:47:50;100700.0;;;17.6;83.5
60719;BME280;46567;51.660;5.824;2022-09-09T17:58:14;100710.0;;;17.5;83.5
60719;BME280;46567;51.660;5.824;2022-09-09T18:07:50;100720.0;;;17.5;84.0
60719;BME280;46567;51.660;5.824;2022-09-09T18:18:14;100730.0;;;17.4;84.0
60719;BME280;46567;51.660;5.824;2022-09-09T18:38:14;100750.0;;;17.2;84.5
60719;BME280;46567;51.660;5.824;2022-09-09T18:47:50;100770.0;;;17.1;84.5
60719;BME280;46567;51.660;5.824;2022-09-09T18:57:50;100760.0;;;17.0;85.0
60719;BME280;46567;51.660;5.824;2022-09-09T19:08:14;100770.0;;;16.8;85.0
60719;BME280;46567;51.660;5.824;2022-09-09T19:17:50;100790.0;;;16.8;85.5
60719;BME280;46567;51.660;5.824;2022-09-09T19:27:50;100790.0;;;16.8;85.5
60719;BME280;46567;51.660;5.824;2022-09-09T19:38:14;100800.0;;;16.7;86.0
60719;BME280;46567;51.660;5.824;2022-09-09T19:47:50;100810.0;;;16.7;86.0
60719;BME280;46567;51.660;5.824;2022-09-09T19:58:15;100820.0;;;16.7;86.5
60719;BME280;46567;51.660;5.824;2022-09-09T20:07:50;100820.0;;;16.7;86.5
60719;BME280;46567;51.660;5.824;2022-09-09T20:18:14;100830.0;;;16.7;87.0
60719;BME280;46567;51.660;5.824;2022-09-09T20:28:14;100820.0;;;16.6;87.0
60719;BME280;46567;51.660;5.824;2022-09-09T20:37:50;100830.0;;;16.6;87.0
60719;BME280;46567;51.660;5.824;2022-09-09T20:48:14;100830.0;;;16.6;87.5
60719;BME280;46567;51.660;5.824;2022-09-09T20:57:50;100830.0;;;16.6;87.5
60719;BME280;46567;51.660;5.824;2022-09-09T21:08:14;100820.0;;;16.6;87.5
60719;BME280;46567;51.660;5.824;2022-09-09T21:17:50;100830.0;;;16.6;88.0
60719;BME280;46567;51.660;5.824;2022-09-09T21:27:50;100840.0;;;16.7;88.0
60719;BME280;46567;51.660;5.824;2022-09-09T21:37:50;100830.0;;;16.7;88.0
60719;BME280;46567;51.660;5.824;2022-09-09T21:47:50;100830.0;;;16.6;88.5
60719;BME280;46567;51.660;5.824;2022-09-09T21:57:50;100830.0;;;16.7;88.5
60719;BME280;46567;51.660;5.824;2022-09-09T22:07:50;100830.0;;;16.7;88.5
60719;BME280;46567;51.660;5.824;2022-09-09T23:07:50;100840.0;;;16.4;89.0
60719;BME280;46567;51.660;5.824;2022-09-09T23:17:50;100840.0;;;16.3;89.0
60719;BME280;46567;51.660;5.824;2022-09-09T23:27:50;100850.0;;;16.2;89.0
60719;BME280;46567;51.660;5.824;2022-09-09T23:38:14;100860.0;;;16.2;89.5
60719;BME280;46567;51.660;5.824;2022-09-09T23:48:40;100860.0;;;16.2;89.5
60719;BME280;46567;51.660;5.824;2022-09-09T23:57:50;100870.0;;;16.2;89.5
